Time;durP1;ratioP1;P1;durP2;ratioP2;P2;SDS_P1;SDS_P2;PMS_P1;PMS_P2;Temp;Humidity;BMP_temperature;BMP_pressure;BME280_temperature;BME280_humidity;BME280_pressure;Samples;Min_cycle;Max_cycle;Signal;HPM_P1;HPM_P2
2022/01/12 00:00:25;;;;;;;152.68;78.85;;;3.30;99.90;;;;;;5069864;28;20047;-72
2022/01/12 00:02:51;;;;;;;187.65;87.75;;;3.30;99.90;;;;;;5068197;28;20048;-72
2022/01/12 00:05:18;;;;;;;192.85;90.85;;;3.30;99.90;;;;;;5076086;28;20135;-72
2022/01/12 00:07:47;;;;;;;202.55;90.68;;;3.30;99.90;;;;;;5078732;28;20052;-72
2022/01/12 00:10:14;;;;;;;164.20;80.95;;;3.40;99.90;;;;;;5068839;28;20635;-71
2022/01/12 00:12:40;;;;;;;186.65;86.32;;;3.40;99.90;;;;;;5070410;28;20060;-72
2022/01/12 00:15:05;;;;;;;176.73;84.18;;;3.40;99.90;;;;;;5069799;28;20558;-71
2022/01/12 00:17:31;;;;;;;199.20;86.53;;;3.40;99.90;;;;;;5067365;28;20441;-72
2022/01/12 00:19:57;;;;;;;214.70;92.50;;;3.40;99.90;;;;;;5067776;28;20041;-71
2022/01/12 00:22:23;;;;;;;188.70;86.95;;;3.40;99.90;;;;;;5067827;28;20090;-71
2022/01/12 00:25:11;;;;;;;227.85;98.05;;;3.40;99.90;;;;;;5070174;28;20084;-71
2022/01/12 00:33:13;;;;;;;191.95;87.63;;;3.40;99.90;;;;;;5067616;28;20072;-72
2022/01/12 00:35:40;;;;;;;230.68;97.95;;;3.40;99.90;;;;;;5068423;28;20115;-72
2022/01/12 00:38:07;;;;;;;218.90;95.15;;;3.40;99.90;;;;;;5066537;28;20044;-72
2022/01/12 00:40:37;;;;;;;213.55;92.15;;;3.40;99.90;;;;;;5066058;28;20048;-71
2022/01/12 00:43:03;;;;;;;192.25;89.53;;;3.40;99.90;;;;;;5067730;28;20044;-71
2022/01/12 00:45:28;;;;;;;190.70;91.28;;;3.40;99.90;;;;;;5065579;28;20044;-72
2022/01/12 00:47:54;;;;;;;232.52;97.18;;;3.40;99.90;;;;;;5067455;28;20132;-72
2022/01/12 00:50:20;;;;;;;200.88;89.18;;;3.40;99.90;;;;;;5069400;28;20057;-72
2022/01/12 00:52:48;;;;;;;218.43;93.00;;;3.40;99.90;;;;;;5067533;28;20048;-72
2022/01/12 00:55:14;;;;;;;281.90;109.68;;;3.40;99.90;;;;;;5067849;28;20044;-72
2022/01/12 00:57:40;;;;;;;235.38;96.30;;;3.40;99.90;;;;;;5067061;28;20059;-72
2022/01/12 01:00:07;;;;;;;220.75;89.95;;;3.50;99.90;;;;;;5065970;28;20127;-72
2022/01/12 01:02:33;;;;;;;283.48;108.57;;;3.50;99.90;;;;;;5068765;28;20076;-72
2022/01/12 01:05:00;;;;;;;230.18;98.13;;;3.50;99.90;;;;;;5066777;28;20084;-72
2022/01/12 01:07:26;;;;;;;209.88;87.40;;;3.50;99.90;;;;;;5068284;28;20051;-72
2022/01/12 01:10:02;;;;;;;207.95;90.50;;;3.50;99.90;;;;;;5058217;28;20596;-72
2022/01/12 01:12:28;;;;;;;211.80;90.60;;;3.50;99.90;;;;;;5068211;28;20052;-72
2022/01/12 01:25:39;;;;;;;315.40;109.82;;;3.50;99.90;;;;;;5066374;28;20391;-72
2022/01/12 01:28:06;;;;;;;238.65;93.72;;;3.50;99.90;;;;;;5070344;28;20066;-72
2022/01/12 01:30:35;;;;;;;316.73;110.88;;;3.50;99.90;;;;;;5069282;28;20052;-72
2022/01/12 01:33:07;;;;;;;283.70;103.43;;;3.50;99.90;;;;;;5069231;28;20117;-72
2022/01/12 01:35:35;;;;;;;416.58;127.60;;;3.50;99.90;;;;;;5062478;28;20866;-72
2022/01/12 01:38:03;;;;;;;202.50;88.82;;;3.50;99.90;;;;;;5071794;28;20049;-72
2022/01/12 01:40:30;;;;;;;226.32;95.00;;;3.50;99.90;;;;;;5069352;28;20051;-72
2022/01/12 01:43:10;;;;;;;314.52;109.30;;;3.60;99.90;;;;;;5049159;28;20045;-72
2022/01/12 01:53:52;;;;;;;389.48;126.45;;;3.50;99.90;;;;;;5069243;28;20059;-72
2022/01/12 01:56:19;;;;;;;227.20;96.07;;;3.60;99.90;;;;;;5058447;28;20063;-72
2022/01/12 01:58:48;;;;;;;332.88;114.22;;;3.60;99.90;;;;;;5063191;28;20504;-72
2022/01/12 02:01:15;;;;;;;450.38;139.23;;;3.60;99.90;;;;;;5065047;28;20037;-72
2022/01/12 02:03:41;;;;;;;357.95;121.03;;;3.60;99.90;;;;;;5066112;28;20050;-72
2022/01/12 02:06:08;;;;;;;364.23;117.85;;;3.60;99.90;;;;;;5068895;28;20060;-72
2022/01/12 02:08:37;;;;;;;360.20;116.75;;;3.60;99.90;;;;;;5079107;28;20057;-72
2022/01/12 02:11:03;;;;;;;439.98;134.98;;;3.60;99.90;;;;;;5069310;28;20059;-72
2022/01/12 02:13:29;;;;;;;266.80;105.25;;;3.60;99.90;;;;;;5069806;28;20052;-71
2022/01/12 02:15:57;;;;;;;438.88;138.02;;;3.60;99.90;;;;;;5072177;28;20075;-72
2022/01/12 02:35:37;;;;;;;317.27;109.05;;;3.70;99.90;;;;;;5070787;28;20056;-72
2022/01/12 02:40:49;;;;;;;414.13;121.70;;;3.60;99.90;;;;;;5070745;28;19920;-72
2022/01/12 02:51:34;;;;;;;272.35;96.22;;;3.70;99.90;;;;;;5072257;28;20416;-72
2022/01/12 02:54:00;;;;;;;397.92;117.35;;;3.70;99.90;;;;;;5070295;28;20051;-72
2022/01/12 02:56:33;;;;;;;229.55;88.70;;;3.70;99.90;;;;;;5069196;28;20050;-72
2022/01/12 02:58:59;;;;;;;434.38;124.50;;;3.70;99.90;;;;;;5036676;28;20040;-72
2022/01/12 03:04:02;;;;;;;225.98;92.45;;;3.70;99.90;;;;;;5068471;28;20080;-72
2022/01/12 03:06:34;;;;;;;429.52;126.25;;;3.80;99.90;;;;;;5063571;28;20049;-72
2022/01/12 03:09:00;;;;;;;484.95;138.80;;;3.80;99.90;;;;;;5062718;28;20489;-72
2022/01/12 03:11:28;;;;;;;243.50;92.25;;;3.80;99.90;;;;;;5067101;28;20094;-71
2022/01/12 03:13:55;;;;;;;322.92;105.10;;;3.80;99.90;;;;;;5069311;28;20052;-72
2022/01/12 03:16:24;;;;;;;216.57;87.22;;;3.80;99.90;;;;;;5066435;28;20552;-72
2022/01/12 03:18:52;;;;;;;360.60;114.32;;;3.80;99.90;;;;;;5068861;28;20050;-72
2022/01/12 03:21:21;;;;;;;313.67;104.10;;;3.80;99.90;;;;;;5069935;28;20048;-72
2022/01/12 03:23:49;;;;;;;299.88;102.40;;;3.80;99.90;;;;;;5070115;28;20784;-72
2022/01/12 03:26:14;;;;;;;310.87;105.57;;;3.80;99.90;;;;;;5069279;28;20084;-72
2022/01/12 03:28:42;;;;;;;309.60;100.00;;;3.80;99.90;;;;;;5051322;28;20170;-71
2022/01/12 03:33:55;;;;;;;268.00;96.95;;;3.80;99.90;;;;;;5068158;28;20309;-72
2022/01/12 03:38:58;;;;;;;417.35;121.80;;;3.80;99.90;;;;;;5061336;28;20398;-71
2022/01/12 03:41:27;;;;;;;302.73;103.72;;;3.80;99.90;;;;;;5068877;28;20045;-72
2022/01/12 03:43:54;;;;;;;286.30;98.00;;;3.80;99.90;;;;;;5064904;28;20044;-71
2022/01/12 03:46:32;;;;;;;220.43;90.30;;;3.80;99.90;;;;;;5075890;28;20040;-71
2022/01/12 03:48:58;;;;;;;443.47;127.23;;;3.90;99.90;;;;;;5066737;28;20056;-72
2022/01/12 03:51:23;;;;;;;280.08;97.80;;;3.80;99.90;;;;;;5068220;28;20328;-72
2022/01/12 03:53:49;;;;;;;569.25;153.32;;;3.80;99.90;;;;;;5068328;28;20439;-72
2022/01/12 03:56:14;;;;;;;232.35;90.97;;;3.80;99.90;;;;;;5070711;28;20107;-71
2022/01/12 03:58:41;;;;;;;394.23;113.22;;;3.80;99.90;;;;;;5068924;28;20092;-71
2022/01/12 04:01:07;;;;;;;391.85;114.95;;;3.80;99.90;;;;;;5067769;28;20119;-71
2022/01/12 04:03:39;;;;;;;243.68;92.13;;;3.80;99.90;;;;;;5066065;28;20048;-72
2022/01/12 04:08:49;;;;;;;286.20;99.47;;;3.70;99.90;;;;;;5067716;28;20448;-72
2022/01/12 04:11:15;;;;;;;205.73;84.05;;;3.70;99.90;;;;;;5068498;28;20048;-72
2022/01/12 04:13:42;;;;;;;272.73;93.70;;;3.60;99.90;;;;;;5068775;28;20048;-72
2022/01/12 04:16:08;;;;;;;222.52;86.10;;;3.60;99.90;;;;;;5068578;28;20049;-71
2022/01/12 04:18:35;;;;;;;226.15;87.88;;;3.60;99.90;;;;;;5059169;28;20908;-71
2022/01/12 04:21:03;;;;;;;279.33;97.22;;;3.60;99.90;;;;;;5070756;28;20063;-72
2022/01/12 04:23:31;;;;;;;235.90;90.18;;;3.60;99.90;;;;;;5068978;28;20048;-72
2022/01/12 04:25:59;;;;;;;307.15;98.63;;;3.60;99.90;;;;;;5068069;28;20512;-72
2022/01/12 04:28:28;;;;;;;237.35;91.38;;;3.50;99.90;;;;;;5069329;28;20033;-72
2022/01/12 04:30:56;;;;;;;227.40;86.93;;;3.50;99.90;;;;;;5066894;28;20040;-72
2022/01/12 04:33:23;;;;;;;187.40;81.67;;;3.40;99.90;;;;;;5066941;28;20037;-72
2022/01/12 04:35:54;;;;;;;195.68;79.95;;;3.30;99.90;;;;;;5069373;28;20383;-71
2022/01/12 04:38:25;;;;;;;194.35;76.55;;;3.30;99.90;;;;;;5065727;28;20059;-71
2022/01/12 04:40:51;;;;;;;190.35;78.88;;;3.20;99.90;;;;;;5067104;28;20525;-72
2022/01/12 04:43:19;;;;;;;166.05;73.38;;;3.10;99.90;;;;;;5070115;28;20453;-71
2022/01/12 04:50:46;;;;;;;187.63;75.07;;;3.10;99.90;;;;;;5079181;28;20048;-71
2022/01/12 04:53:13;;;;;;;197.67;80.13;;;3.10;99.90;;;;;;5068271;28;20136;-72
2022/01/12 04:55:39;;;;;;;178.85;74.50;;;3.00;99.90;;;;;;5068643;28;20052;-71
2022/01/12 04:58:06;;;;;;;255.85;79.20;;;3.00;99.90;;;;;;5066414;28;20048;-71
2022/01/12 05:00:33;;;;;;;157.40;69.25;;;3.00;99.90;;;;;;5066505;28;20091;-72
2022/01/12 05:13:47;;;;;;;310.95;96.10;;;3.10;99.90;;;;;;5067484;28;20080;-71
2022/01/12 05:16:13;;;;;;;192.55;73.95;;;3.10;99.90;;;;;;5068178;28;20501;-71
2022/01/12 05:18:40;;;;;;;238.05;75.55;;;3.10;99.90;;;;;;5070944;28;20052;-72
2022/01/12 05:21:07;;;;;;;245.60;73.30;;;3.10;99.90;;;;;;5075102;28;20151;-71
2022/01/12 05:23:36;;;;;;;192.48;70.68;;;3.10;99.90;;;;;;5064795;28;20300;-72
2022/01/12 05:26:02;;;;;;;106.57;56.22;;;3.10;99.90;;;;;;5057561;28;20037;-71
2022/01/12 05:28:28;;;;;;;110.75;56.53;;;3.10;99.90;;;;;;5059057;28;20460;-71
2022/01/12 05:30:55;;;;;;;308.38;81.68;;;3.10;99.90;;;;;;5060461;28;20048;-72
2022/01/12 05:33:23;;;;;;;187.48;62.03;;;3.10;99.90;;;;;;5066098;28;20497;-72
2022/01/12 05:35:49;;;;;;;238.35;72.75;;;3.10;99.90;;;;;;5066574;28;20065;-72
2022/01/12 05:38:15;;;;;;;115.57;52.75;;;3.10;99.90;;;;;;5067708;28;20049;-72
2022/01/12 05:40:47;;;;;;;175.32;59.08;;;3.00;99.90;;;;;;5066624;28;20048;-72
2022/01/12 05:43:16;;;;;;;92.00;49.65;;;3.00;99.90;;;;;;5055028;28;20421;-71
2022/01/12 05:45:44;;;;;;;;;;;3.00;99.90;;;;;;5066219;28;20044;-71
2022/01/12 05:50:38;;;;;;;202.27;62.15;;;2.90;99.90;;;;;;5066339;28;20135;-72
2022/01/12 05:53:04;;;;;;;102.82;51.20;;;2.90;99.90;;;;;;5067632;28;20043;-72
2022/01/12 05:55:30;;;;;;;91.40;49.75;;;2.90;99.90;;;;;;5049862;28;20040;-72
2022/01/12 05:57:56;;;;;;;94.55;51.35;;;2.90;99.90;;;;;;5084723;28;20416;-71
2022/01/12 06:00:25;;;;;;;88.70;49.78;;;2.90;99.90;;;;;;5066540;28;20520;-72
2022/01/12 06:02:51;;;;;;;;;;;2.90;99.90;;;;;;5066254;28;20059;-72
2022/01/12 06:05:18;;;;;;;113.80;51.05;;;2.90;99.90;;;;;;5067538;28;19920;-72
2022/01/12 06:07:45;;;;;;;203.00;69.05;;;2.80;99.90;;;;;;5066334;28;20044;-71
2022/01/12 06:10:11;;;;;;;113.18;53.42;;;2.80;99.90;;;;;;5062675;28;20040;-72
2022/01/12 06:12:38;;;;;;;104.00;56.25;;;2.80;99.90;;;;;;5062034;28;20059;-72
2022/01/12 06:15:05;;;;;;;86.65;49.85;;;2.80;99.90;;;;;;5067669;28;20090;-71
2022/01/12 06:17:31;;;;;;;217.25;71.10;;;2.70;99.90;;;;;;5065271;28;20451;-71
2022/01/12 06:19:57;;;;;;;213.93;68.05;;;2.70;99.90;;;;;;5059665;28;20049;-72
2022/01/12 06:22:24;;;;;;;129.57;54.50;;;2.70;99.90;;;;;;5065873;28;20045;-72
2022/01/12 06:24:50;;;;;;;96.53;52.55;;;2.70;99.90;;;;;;5065620;28;20053;-72
2022/01/12 06:27:20;;;;;;;213.80;72.40;;;2.70;99.90;;;;;;5064174;28;20462;-71
2022/01/12 06:32:37;;;;;;;236.27;72.47;;;2.70;99.90;;;;;;5061371;28;20052;-72
2022/01/12 06:35:03;;;;;;;99.25;52.30;;;2.70;99.90;;;;;;5064462;28;20044;-72
2022/01/12 06:37:29;;;;;;;127.15;57.83;;;2.70;99.90;;;;;;5066316;28;20151;-72
2022/01/12 06:39:54;;;;;;;147.13;62.10;;;2.70;99.90;;;;;;5080203;28;20528;-72
2022/01/12 06:42:20;;;;;;;153.27;61.88;;;2.70;99.90;;;;;;5067974;28;20036;-72
2022/01/12 06:44:47;;;;;;;268.80;82.82;;;2.70;99.90;;;;;;5065888;28;20082;-71
2022/01/12 06:47:13;;;;;;;141.00;62.45;;;2.70;99.90;;;;;;5065994;28;20047;-71
2022/01/12 06:49:39;;;;;;;126.50;59.05;;;2.70;99.90;;;;;;5065585;28;20413;-72
2022/01/12 06:52:06;;;;;;;110.05;57.33;;;2.80;99.90;;;;;;5071198;28;20048;-71
2022/01/12 06:54:32;;;;;;;266.80;83.38;;;2.80;99.90;;;;;;5068211;28;20059;-72
2022/01/12 06:56:57;;;;;;;145.75;65.13;;;2.80;99.90;;;;;;5071570;28;20043;-72
2022/01/12 06:59:23;;;;;;;127.35;59.90;;;2.80;99.90;;;;;;5067956;28;20123;-72
2022/01/12 07:01:48;;;;;;;157.57;65.28;;;2.80;99.90;;;;;;5063212;28;20418;-71
2022/01/12 07:04:14;;;;;;;158.07;63.95;;;2.80;99.90;;;;;;5069058;28;20115;-72
2022/01/12 07:06:40;;;;;;;144.95;62.58;;;2.90;99.90;;;;;;5070435;28;20056;-71
2022/01/12 07:09:05;;;;;;;144.60;62.97;;;2.80;99.90;;;;;;5068054;28;20127;-72
2022/01/12 07:11:32;;;;;;;116.57;55.83;;;2.80;99.90;;;;;;5070598;28;20549;-71
2022/01/12 07:13:58;;;;;;;108.10;56.97;;;2.80;99.90;;;;;;5070558;28;20128;-72
2022/01/12 07:16:23;;;;;;;117.18;56.60;;;2.90;99.90;;;;;;5070266;28;20049;-72
2022/01/12 07:18:49;;;;;;;170.52;66.80;;;2.90;99.90;;;;;;5068670;28;20102;-72
2022/01/12 07:21:15;;;;;;;154.98;63.75;;;2.90;99.90;;;;;;5064934;28;20048;-72
2022/01/12 07:23:41;;;;;;;134.88;60.22;;;2.90;99.90;;;;;;5071220;28;20400;-71
2022/01/12 07:26:08;;;;;;;133.30;60.92;;;3.00;99.90;;;;;;5064248;28;20098;-71
2022/01/12 07:28:34;;;;;;;341.50;90.03;;;3.00;99.90;;;;;;5068558;28;20413;-72
2022/01/12 07:31:00;;;;;;;172.98;66.65;;;3.00;99.90;;;;;;5071884;28;20040;-72
2022/01/12 07:33:25;;;;;;;302.05;84.00;;;3.00;99.90;;;;;;5068845;28;20414;-71
2022/01/12 07:35:52;;;;;;;164.48;63.88;;;3.00;99.90;;;;;;5066999;28;20134;-71
2022/01/12 07:38:18;;;;;;;127.47;58.58;;;3.00;99.90;;;;;;5058042;28;20460;-72
2022/01/12 07:40:44;;;;;;;259.38;74.03;;;3.00;99.90;;;;;;5069096;28;20036;-71
2022/01/12 07:43:09;;;;;;;168.68;64.78;;;3.00;99.90;;;;;;5071475;28;20501;-71
2022/01/12 07:45:36;;;;;;;165.07;66.95;;;3.00;99.90;;;;;;5069437;28;20059;-71
2022/01/12 07:48:02;;;;;;;216.50;72.55;;;3.00;99.90;;;;;;5070407;28;20044;-72
2022/01/12 07:50:28;;;;;;;148.13;60.50;;;3.00;99.90;;;;;;5067540;28;20489;-71
2022/01/12 07:52:53;;;;;;;211.27;64.50;;;2.90;99.90;;;;;;5069994;28;20044;-72
2022/01/12 07:55:24;;;;;;;115.10;54.10;;;2.80;99.90;;;;;;5066951;28;20045;-71
2022/01/12 07:57:51;;;;;;;146.68;56.67;;;2.80;99.90;;;;;;5069270;28;20048;-71
2022/01/12 08:00:18;;;;;;;181.40;63.28;;;2.80;99.90;;;;;;5065592;28;20409;-71
2022/01/12 08:02:44;;;;;;;158.95;57.53;;;2.80;99.90;;;;;;5064854;28;20057;-71
2022/01/12 08:05:10;;;;;;;150.32;59.88;;;2.80;99.90;;;;;;5064804;28;20107;-71
2022/01/12 08:07:38;;;;;;;128.93;55.63;;;2.80;99.90;;;;;;5068161;28;20417;-71
2022/01/12 08:10:05;;;;;;;112.82;51.78;;;2.80;99.90;;;;;;5068746;28;20059;-71
2022/01/12 08:12:32;;;;;;;342.52;88.93;;;2.80;99.90;;;;;;5066845;28;20091;-72
2022/01/12 08:14:57;;;;;;;110.07;53.58;;;2.80;99.90;;;;;;5065652;28;20044;-71
2022/01/12 08:17:23;;;;;;;131.82;59.30;;;2.80;99.90;;;;;;5068826;28;20563;-72
2022/01/12 08:19:51;;;;;;;114.72;54.13;;;2.80;99.90;;;;;;5066459;28;20046;-71
2022/01/12 08:22:16;;;;;;;105.57;53.45;;;2.80;99.90;;;;;;5067305;28;20049;-72
2022/01/12 08:24:42;;;;;;;111.97;52.35;;;2.80;99.90;;;;;;5050508;28;20585;-72
2022/01/12 08:27:08;;;;;;;128.95;55.40;;;2.80;99.90;;;;;;5067210;28;20119;-71
2022/01/12 08:29:34;;;;;;;105.30;49.70;;;2.80;99.90;;;;;;5066491;28;20063;-72
2022/01/12 08:32:00;;;;;;;128.70;53.05;;;2.90;99.90;;;;;;5066596;28;20045;-72
2022/01/12 08:34:27;;;;;;;110.38;52.10;;;2.90;99.90;;;;;;5069038;28;20098;-72
2022/01/12 08:36:53;;;;;;;111.05;52.40;;;3.00;99.90;;;;;;5066183;28;20052;-72
2022/01/12 08:39:18;;;;;;;291.45;82.75;;;3.10;99.90;;;;;;5066506;28;20398;-72
2022/01/12 08:41:44;;;;;;;240.60;70.75;;;3.10;99.90;;;;;;5070378;28;20079;-72
2022/01/12 08:44:10;;;;;;;139.13;56.75;;;3.20;99.90;;;;;;5081792;28;20114;-72
2022/01/12 08:46:38;;;;;;;87.10;45.80;;;3.30;99.90;;;;;;5070692;28;20485;-72
2022/01/12 08:49:03;;;;;;;164.68;59.10;;;3.40;99.90;;;;;;5060217;28;20128;-72
2022/01/12 08:51:29;;;;;;;311.05;77.00;;;3.40;99.90;;;;;;5062739;28;20123;-71
2022/01/12 08:53:55;;;;;;;439.08;94.43;;;3.50;99.90;;;;;;5065886;28;20101;-71
2022/01/12 08:56:21;;;;;;;395.27;84.15;;;3.50;99.90;;;;;;5062400;28;20047;-71
2022/01/12 08:58:48;;;;;;;89.95;40.25;;;3.60;99.90;;;;;;5067335;28;20573;-72
2022/01/12 09:01:16;;;;;;;103.68;43.15;;;3.70;99.90;;;;;;5068551;28;20051;-71
2022/01/12 09:03:42;;;;;;;174.35;55.42;;;3.70;99.90;;;;;;5069311;28;20064;-71
2022/01/12 09:06:08;;;;;;;118.00;47.70;;;3.70;99.90;;;;;;5063042;28;20061;-71
2022/01/12 09:08:36;;;;;;;119.05;44.53;;;3.80;99.90;;;;;;5065105;28;20098;-71
2022/01/12 09:11:03;;;;;;;;;;;3.80;99.90;;;;;;5069471;28;20516;-71
2022/01/12 09:13:28;;;;;;;177.57;56.35;;;3.90;99.90;;;;;;5062515;28;19927;-71
2022/01/12 09:15:54;;;;;;;108.20;45.38;;;3.90;99.90;;;;;;5066275;28;20043;-72
2022/01/12 09:18:20;;;;;;;153.00;51.58;;;4.00;99.90;;;;;;5065726;28;20119;-71
2022/01/12 09:20:46;;;;;;;108.53;44.58;;;4.10;99.90;;;;;;5069331;28;20405;-72
2022/01/12 09:23:12;;;;;;;191.45;57.75;;;4.10;99.90;;;;;;5066356;28;20094;-72
2022/01/12 09:25:39;;;;;;;106.75;38.90;;;4.20;99.90;;;;;;5065715;28;20588;-72
2022/01/12 09:28:08;;;;;;;112.97;38.92;;;4.20;99.90;;;;;;5057448;28;20047;-72
2022/01/12 09:30:34;;;;;;;134.10;42.08;;;4.30;99.90;;;;;;5070096;28;20455;-71
2022/01/12 09:33:00;;;;;;;173.80;41.75;;;4.40;99.90;;;;;;5066686;28;20048;-71
2022/01/12 09:35:27;;;;;;;110.47;34.58;;;4.40;99.90;;;;;;5066430;28;20044;-71
2022/01/12 09:37:53;;;;;;;102.25;34.88;;;4.50;99.90;;;;;;5068070;28;20043;-71
2022/01/12 09:40:19;;;;;;;182.27;45.00;;;4.60;99.90;;;;;;5066361;28;20048;-71
2022/01/12 09:42:49;;;;;;;182.57;47.47;;;4.60;99.90;;;;;;5069313;28;20067;-71
2022/01/12 09:45:18;;;;;;;140.40;41.90;;;4.70;99.90;;;;;;5066856;28;20477;-71
2022/01/12 09:47:47;;;;;;;89.65;33.70;;;4.70;99.90;;;;;;5066019;28;20048;-71
2022/01/12 09:50:14;;;;;;;170.60;43.60;;;4.80;99.90;;;;;;5065591;28;20072;-71
2022/01/12 09:52:40;;;;;;;100.20;35.97;;;4.90;99.90;;;;;;5084412;28;20059;-71
2022/01/12 09:55:06;;;;;;;89.68;35.08;;;5.00;99.90;;;;;;5067435;28;20136;-71
2022/01/12 09:57:32;;;;;;;92.97;31.40;;;5.10;99.90;;;;;;5066113;28;20136;-71
2022/01/12 09:59:57;;;;;;;86.43;32.53;;;5.20;99.90;;;;;;5067748;28;20535;-71
2022/01/12 10:02:23;;;;;;;83.65;32.25;;;5.30;99.90;;;;;;5052088;28;20557;-71
2022/01/12 10:05:08;;;;;;;117.45;33.15;;;5.30;99.90;;;;;;5066554;28;20053;-71
2022/01/12 10:07:35;;;;;;;73.00;26.70;;;5.40;99.90;;;;;;5068758;28;20053;-71
2022/01/12 10:10:07;;;;;;;89.00;30.45;;;5.50;99.90;;;;;;5067167;28;20044;-71
2022/01/12 10:12:33;;;;;;;114.35;32.25;;;5.60;99.90;;;;;;5065754;28;20044;-71
2022/01/12 10:15:09;;;;;;;86.55;30.38;;;5.70;99.90;;;;;;5066985;28;20113;-71
2022/01/12 10:17:41;;;;;;;102.75;31.85;;;5.70;99.90;;;;;;5068370;28;20083;-71
2022/01/12 10:20:21;;;;;;;99.25;31.05;;;5.70;99.90;;;;;;5066757;28;20044;-71
2022/01/12 10:23:07;;;;;;;119.70;33.03;;;5.70;99.90;;;;;;5064090;28;20124;-71
2022/01/12 10:25:33;;;;;;;115.03;31.70;;;5.80;99.90;;;;;;5067180;28;20080;-71
2022/01/12 10:28:11;;;;;;;103.35;31.65;;;5.80;99.90;;;;;;5065984;28;20086;-72
2022/01/12 10:30:37;;;;;;;129.65;32.90;;;5.80;99.90;;;;;;5058528;28;20040;-71
2022/01/12 10:33:08;;;;;;;83.03;22.42;;;5.80;99.90;;;;;;5068424;28;20097;-71
2022/01/12 10:35:36;;;;;;;84.53;24.17;;;5.80;99.90;;;;;;5062504;28;20048;-71
2022/01/12 10:38:12;;;;;;;51.47;20.60;;;5.80;99.90;;;;;;5065269;28;20045;-72
2022/01/12 10:40:56;;;;;;;79.22;23.42;;;5.80;99.90;;;;;;5066234;28;20045;-71
2022/01/12 10:43:31;;;;;;;78.90;24.55;;;5.90;99.90;;;;;;5071155;28;20132;-71
2022/01/12 10:45:57;;;;;;;90.65;25.17;;;5.90;99.90;;;;;;5069414;28;20102;-71
2022/01/12 10:48:25;;;;;;;83.15;27.35;;;5.90;99.90;;;;;;5064589;28;20082;-72
2022/01/12 10:50:58;;;;;;;85.38;23.85;;;5.90;99.90;;;;;;5066048;28;20092;-71
2022/01/12 10:53:35;;;;;;;76.70;24.27;;;6.00;99.90;;;;;;5064573;28;20128;-72
2022/01/12 10:56:07;;;;;;;72.75;22.60;;;6.10;99.90;;;;;;5068544;28;20570;-72
2022/01/12 10:58:34;;;;;;;57.60;18.13;;;6.20;99.90;;;;;;5056006;28;20044;-72
2022/01/12 11:00:59;;;;;;;65.82;20.63;;;6.10;99.90;;;;;;5071157;28;20068;-72
2022/01/12 11:03:25;;;;;;;62.25;19.33;;;6.10;99.90;;;;;;5069987;28;20458;-72
2022/01/12 11:05:54;;;;;;;63.80;19.95;;;6.10;99.90;;;;;;5063977;28;20053;-72
2022/01/12 11:08:20;;;;;;;;;;;6.00;99.90;;;;;;5063634;28;20055;-71
2022/01/12 11:10:46;;;;;;;52.20;17.73;;;5.90;99.90;;;;;;5071345;28;19923;-72
2022/01/12 11:13:12;;;;;;;71.18;19.48;;;5.90;99.90;;;;;;5071131;28;20041;-73
2022/01/12 11:15:38;;;;;;;57.10;17.38;;;6.00;99.90;;;;;;5068800;28;20040;-72
2022/01/12 11:18:04;;;;;;;61.63;18.00;;;6.00;99.90;;;;;;5069560;28;20037;-72
2022/01/12 11:20:30;;;;;;;61.90;19.15;;;6.00;99.90;;;;;;5069632;28;20049;-72
2022/01/12 11:23:04;;;;;;;88.93;18.77;;;6.00;99.90;;;;;;5074993;28;20067;-72
2022/01/12 11:25:40;;;;;;;44.85;16.88;;;6.00;99.90;;;;;;5070089;28;20080;-71
2022/01/12 11:28:26;;;;;;;55.92;17.70;;;6.00;99.90;;;;;;5041419;28;20068;-72
2022/01/12 11:30:54;;;;;;;57.15;18.55;;;6.10;99.90;;;;;;5068682;28;20053;-72
2022/01/12 11:33:23;;;;;;;58.17;22.70;;;6.10;99.90;;;;;;5059675;28;20063;-72
2022/01/12 11:35:53;;;;;;;63.40;21.15;;;6.10;99.90;;;;;;5077907;28;20738;-72
2022/01/12 11:38:30;;;;;;;67.22;23.45;;;6.10;99.90;;;;;;5061920;28;20516;-72
2022/01/12 11:41:23;;;;;;;62.60;19.90;;;6.10;99.90;;;;;;5072175;28;20048;-71
2022/01/12 11:43:51;;;;;;;67.22;20.58;;;6.10;99.90;;;;;;5068773;28;20048;-71
2022/01/12 11:46:23;;;;;;;58.60;18.95;;;6.00;99.90;;;;;;5062010;28;20105;-71
2022/01/12 11:48:56;;;;;;;48.30;17.58;;;6.00;99.90;;;;;;5066848;28;20044;-71
2022/01/12 11:51:43;;;;;;;52.50;18.20;;;6.00;99.90;;;;;;5067481;28;20047;-71
2022/01/12 11:54:18;;;;;;;43.90;17.02;;;6.00;99.90;;;;;;5069921;28;20075;-72
2022/01/12 11:56:52;;;;;;;47.30;17.05;;;5.90;99.90;;;;;;5060685;28;20071;-71
2022/01/12 11:59:19;;;;;;;43.97;18.25;;;5.90;99.90;;;;;;5058813;28;20395;-71
2022/01/12 12:01:50;;;;;;;71.80;19.25;;;5.80;99.90;;;;;;5070169;28;20086;-71
2022/01/12 12:04:26;;;;;;;65.28;21.70;;;5.80;99.90;;;;;;5067961;28;20172;-71
2022/01/12 12:07:06;;;;;;;65.78;21.77;;;5.80;99.90;;;;;;5069713;28;20048;-72
2022/01/12 12:09:43;;;;;;;54.67;19.77;;;5.70;99.90;;;;;;5069043;28;20087;-72
2022/01/12 12:12:22;;;;;;;54.22;20.88;;;5.70;99.90;;;;;;5068524;28;20056;-71
2022/01/12 12:14:53;;;;;;;64.15;21.40;;;5.70;99.90;;;;;;5069431;28;20101;-71
2022/01/12 12:17:20;;;;;;;60.47;22.27;;;5.80;99.90;;;;;;5065262;28;20044;-72
2022/01/12 12:19:47;;;;;;;69.35;23.88;;;5.70;99.90;;;;;;5069353;28;20044;-71
2022/01/12 12:22:18;;;;;;;53.13;22.10;;;5.80;99.90;;;;;;5074489;28;20151;-72
2022/01/12 12:24:47;;;;;;;58.22;22.30;;;5.90;99.90;;;;;;5067701;28;20080;-72
2022/01/12 12:27:18;;;;;;;60.33;24.73;;;5.90;99.90;;;;;;5068718;28;20082;-71
2022/01/12 12:29:45;;;;;;;68.55;25.55;;;5.90;99.90;;;;;;5067755;28;20076;-72
2022/01/12 12:32:13;;;;;;;73.63;25.60;;;6.00;99.90;;;;;;5069625;28;20032;-71
2022/01/12 12:34:40;;;;;;;65.35;22.20;;;6.00;99.90;;;;;;5064796;28;20044;-71
2022/01/12 12:37:09;;;;;;;51.03;21.00;;;6.10;99.90;;;;;;5068148;28;20131;-71
2022/01/12 12:39:42;;;;;;;57.60;20.90;;;6.10;99.90;;;;;;5059257;28;20044;-71
2022/01/12 12:42:19;;;;;;;56.80;18.92;;;6.10;99.90;;;;;;5066127;28;20167;-72
2022/01/12 12:44:45;;;;;;;44.25;20.63;;;6.20;99.90;;;;;;5060069;28;20041;-72
2022/01/12 12:47:20;;;;;;;59.30;22.88;;;6.20;99.90;;;;;;5066305;28;20452;-71
2022/01/12 12:49:50;;;;;;;53.83;19.48;;;6.30;99.90;;;;;;5066260;28;20083;-72
2022/01/12 12:52:39;;;;;;;47.03;19.90;;;6.30;99.90;;;;;;5067414;28;20118;-71
2022/01/12 12:55:14;;;;;;;60.92;19.50;;;6.40;99.90;;;;;;5056740;28;20056;-72
2022/01/12 12:57:53;;;;;;;55.10;20.42;;;6.40;99.90;;;;;;5065892;28;20052;-71
2022/01/12 13:00:24;;;;;;;47.70;18.92;;;6.40;99.90;;;;;;5064904;28;20059;-72
2022/01/12 13:02:53;;;;;;;44.58;18.55;;;6.40;99.90;;;;;;5069007;28;20041;-72
2022/01/12 13:05:22;;;;;;;55.00;20.42;;;6.40;99.90;;;;;;5072738;28;20068;-72
2022/01/12 13:07:49;;;;;;;50.50;20.80;;;6.40;99.90;;;;;;5068544;28;20390;-71
2022/01/12 13:10:23;;;;;;;62.78;21.83;;;6.40;99.90;;;;;;5065704;28;20505;-72
2022/01/12 13:12:54;;;;;;;51.60;20.00;;;6.50;99.90;;;;;;5065242;28;20052;-71
2022/01/12 13:15:23;;;;;;;52.03;19.85;;;6.50;99.90;;;;;;5069284;28;20053;-71
2022/01/12 13:17:57;;;;;;;52.78;21.65;;;6.40;99.90;;;;;;5069383;28;20623;-71
2022/01/12 13:23:02;;;;;;;60.25;21.02;;;6.40;99.90;;;;;;5067574;28;20672;-71
2022/01/12 13:25:28;;;;;;;52.92;19.90;;;6.50;99.90;;;;;;5070043;28;20040;-71
2022/01/12 13:27:53;;;;;;;71.10;21.02;;;6.50;99.90;;;;;;5068397;28;20095;-71
2022/01/12 13:30:26;;;;;;;54.88;21.25;;;6.40;99.90;;;;;;5068774;28;20048;-71
2022/01/12 13:32:54;;;;;;;49.75;22.77;;;6.40;99.90;;;;;;5067178;28;20114;-71
2022/01/12 13:35:34;;;;;;;;;;;6.40;99.90;;;;;;5067820;28;20036;-72
2022/01/12 13:38:02;;;;;;;57.17;22.58;;;6.30;99.90;;;;;;5070382;28;20400;-71
2022/01/12 13:40:35;;;;;;;57.78;24.05;;;6.30;99.90;;;;;;5067005;28;20048;-71
2022/01/12 13:43:03;;;;;;;49.92;21.13;;;6.40;99.90;;;;;;5065885;28;20075;-70
2022/01/12 13:45:44;;;;;;;52.85;21.38;;;6.30;99.90;;;;;;5067649;28;20131;-70
2022/01/12 13:48:17;;;;;;;57.13;22.88;;;6.30;99.90;;;;;;5049788;28;20040;-70
2022/01/12 13:50:54;;;;;;;58.13;21.45;;;6.30;99.90;;;;;;5067044;28;20068;-70
2022/01/12 13:53:35;;;;;;;56.40;23.77;;;6.20;99.90;;;;;;5066887;28;20888;-70
2022/01/12 13:56:01;;;;;;;63.30;25.08;;;6.20;99.90;;;;;;5066373;28;20045;-70
2022/01/12 13:58:29;;;;;;;71.72;26.38;;;6.20;99.90;;;;;;5065259;28;20090;-70
2022/01/12 14:01:11;;;;;;;76.35;26.33;;;6.20;99.90;;;;;;5067814;28;20040;-70
2022/01/12 14:03:41;;;;;;;81.13;26.30;;;6.20;99.90;;;;;;5072878;28;20033;-71